sensor_id;sensor_type;location;lat;lon;timestamp;temperature;humidity
51902;DHT22;37929;53.218;6.548;2023-02-28T00:00:24;5.60;99.90
51902;DHT22;37929;53.218;6.548;2023-02-28T00:02:50;6.20;99.90
51902;DHT22;37929;53.218;6.548;2023-02-28T00:05:21;5.60;99.90
51902;DHT22;37929;53.218;6.548;2023-02-28T00:07:47;5.70;99.90
51902;DHT22;37929;53.218;6.548;2023-02-28T00:10:16;5.60;99.90
51902;DHT22;37929;53.218;6.548;2023-02-28T00:12:59;5.60;99.90
51902;DHT22;37929;53.218;6.548;2023-02-28T00:15:25;5.60;99.90
51902;DHT22;37929;53.218;6.548;2023-02-28T00:17:51;5.60;99.90
51902;DHT22;37929;53.218;6.548;2023-02-28T00:20:18;5.60;99.90
51902;DHT22;37929;53.218;6.548;2023-02-28T00:22:47;5.60;99.90
51902;DHT22;37929;53.218;6.548;2023-02-28T00:25:15;5.70;99.90
51902;DHT22;37929;53.218;6.548;2023-02-28T00:27:41;6.20;99.90
51902;DHT22;37929;53.218;6.548;2023-02-28T00:30:10;5.60;99.90
51902;DHT22;37929;53.218;6.548;2023-02-28T00:32:36;5.60;99.90
51902;DHT22;37929;53.218;6.548;2023-02-28T00:35:04;5.60;99.90
51902;DHT22;37929;53.218;6.548;2023-02-28T00:37:30;5.60;99.90
51902;DHT22;37929;53.218;6.548;2023-02-28T00:39:56;6.20;99.90
51902;DHT22;37929;53.218;6.548;2023-02-28T00:42:22;5.60;99.90
51902;DHT22;37929;53.218;6.548;2023-02-28T00:44:48;5.60;99.90
51902;DHT22;37929;53.218;6.548;2023-02-28T00:47:14;6.20;99.90
51902;DHT22;37929;53.218;6.548;2023-02-28T00:49:40;5.60;99.90
51902;DHT22;37929;53.218;6.548;2023-02-28T00:52:05;5.60;99.90
51902;DHT22;37929;53.218;6.548;2023-02-28T00:54:31;5.60;99.90
51902;DHT22;37929;53.218;6.548;2023-02-28T00:56:57;5.60;99.90
51902;DHT22;37929;53.218;6.548;2023-02-28T00:59:23;5.60;99.90
51902;DHT22;37929;53.218;6.548;2023-02-28T01:01:48;5.60;99.90
51902;DHT22;37929;53.218;6.548;2023-02-28T01:04:15;5.70;99.90
51902;DHT22;37929;53.218;6.548;2023-02-28T01:06:41;5.60;99.90
51902;DHT22;37929;53.218;6.548;2023-02-28T01:09:07;5.60;99.90
51902;DHT22;37929;53.218;6.548;2023-02-28T01:11:34;5.50;99.90
51902;DHT22;37929;53.218;6.548;2023-02-28T01:14:00;5.50;99.90
51902;DHT22;37929;53.218;6.548;2023-02-28T01:16:27;5.50;99.90
51902;DHT22;37929;53.218;6.548;2023-02-28T01:18:53;6.00;99.90
51902;DHT22;37929;53.218;6.548;2023-02-28T01:21:20;5.50;99.90
51902;DHT22;37929;53.218;6.548;2023-02-28T01:23:47;5.50;99.90
51902;DHT22;37929;53.218;6.548;2023-02-28T01:26:20;6.20;99.90
51902;DHT22;37929;53.218;6.548;2023-02-28T01:28:46;5.50;99.90
51902;DHT22;37929;53.218;6.548;2023-02-28T01:31:12;5.50;99.90
51902;DHT22;37929;53.218;6.548;2023-02-28T01:33:39;5.70;99.90
51902;DHT22;37929;53.218;6.548;2023-02-28T01:36:12;5.50;99.90
51902;DHT22;37929;53.218;6.548;2023-02-28T01:38:39;5.50;99.90
51902;DHT22;37929;53.218;6.548;2023-02-28T01:41:05;5.50;99.90
51902;DHT22;37929;53.218;6.548;2023-02-28T01:43:53;5.50;99.90
51902;DHT22;37929;53.218;6.548;2023-02-28T01:46:22;5.50;99.90
51902;DHT22;37929;53.218;6.548;2023-02-28T01:49:11;5.50;99.90
51902;DHT22;37929;53.218;6.548;2023-02-28T01:51:49;5.50;99.90
51902;DHT22;37929;53.218;6.548;2023-02-28T01:54:27;6.00;99.90
51902;DHT22;37929;53.218;6.548;2023-02-28T01:57:05;5.50;99.90
51902;DHT22;37929;53.218;6.548;2023-02-28T01:59:53;5.50;99.90
51902;DHT22;37929;53.218;6.548;2023-02-28T02:02:21;5.50;99.90
51902;DHT22;37929;53.218;6.548;2023-02-28T02:04:58;5.50;99.90
51902;DHT22;37929;53.218;6.548;2023-02-28T02:07:28;5.40;99.90
51902;DHT22;37929;53.218;6.548;2023-02-28T02:10:11;5.90;99.90
51902;DHT22;37929;53.218;6.548;2023-02-28T02:21:32;5.40;99.90
51902;DHT22;37929;53.218;6.548;2023-02-28T02:27:20;5.40;99.90
51902;DHT22;37929;53.218;6.548;2023-02-28T02:46:37;5.50;99.90
51902;DHT22;37929;53.218;6.548;2023-02-28T02:49:08;5.50;99.90
51902;DHT22;37929;53.218;6.548;2023-02-28T02:51:36;5.50;99.90
51902;DHT22;37929;53.218;6.548;2023-02-28T02:56:43;5.60;99.90
51902;DHT22;37929;53.218;6.548;2023-02-28T02:59:12;5.70;99.90
51902;DHT22;37929;53.218;6.548;2023-02-28T03:01:39;5.60;99.90
51902;DHT22;37929;53.218;6.548;2023-02-28T03:04:13;5.60;99.90
51902;DHT22;37929;53.218;6.548;2023-02-28T03:06:41;5.60;99.90
51902;DHT22;37929;53.218;6.548;2023-02-28T03:09:07;5.60;99.90
51902;DHT22;37929;53.218;6.548;2023-02-28T03:11:35;5.60;99.90
51902;DHT22;37929;53.218;6.548;2023-02-28T03:14:10;5.50;99.90
51902;DHT22;37929;53.218;6.548;2023-02-28T03:25:06;5.30;99.90
51902;DHT22;37929;53.218;6.548;2023-02-28T03:30:19;5.10;99.90
51902;DHT22;37929;53.218;6.548;2023-02-28T03:33:01;5.10;99.90
51902;DHT22;37929;53.218;6.548;2023-02-28T03:35:34;5.10;99.90
51902;DHT22;37929;53.218;6.548;2023-02-28T03:40:48;5.00;99.90
51902;DHT22;37929;53.218;6.548;2023-02-28T03:43:22;4.90;99.90
51902;DHT22;37929;53.218;6.548;2023-02-28T03:45:50;4.80;99.90
51902;DHT22;37929;53.218;6.548;2023-02-28T03:48:27;4.70;99.90
51902;DHT22;37929;53.218;6.548;2023-02-28T03:50:57;4.60;99.90
51902;DHT22;37929;53.218;6.548;2023-02-28T03:53:41;4.60;99.90
51902;DHT22;37929;53.218;6.548;2023-02-28T03:56:24;4.50;99.90
51902;DHT22;37929;53.218;6.548;2023-02-28T03:59:02;4.50;99.90
51902;DHT22;37929;53.218;6.548;2023-02-28T04:01:31;4.40;99.90
51902;DHT22;37929;53.218;6.548;2023-02-28T04:03:59;4.30;99.90
51902;DHT22;37929;53.218;6.548;2023-02-28T04:06:25;4.20;99.90
51902;DHT22;37929;53.218;6.548;2023-02-28T04:08:51;4.10;99.90
51902;DHT22;37929;53.218;6.548;2023-02-28T04:11:34;4.10;99.90
51902;DHT22;37929;53.218;6.548;2023-02-28T04:14:01;4.00;99.90
51902;DHT22;37929;53.218;6.548;2023-02-28T04:16:28;3.90;99.90
51902;DHT22;37929;53.218;6.548;2023-02-28T04:18:54;3.90;99.90
51902;DHT22;37929;53.218;6.548;2023-02-28T04:21:34;4.30;99.90
51902;DHT22;37929;53.218;6.548;2023-02-28T04:24:01;3.90;99.90
51902;DHT22;37929;53.218;6.548;2023-02-28T04:26:35;3.90;99.90
51902;DHT22;37929;53.218;6.548;2023-02-28T04:29:02;4.30;99.90
51902;DHT22;37929;53.218;6.548;2023-02-28T04:31:28;3.90;99.90
51902;DHT22;37929;53.218;6.548;2023-02-28T04:33:54;3.90;99.90
51902;DHT22;37929;53.218;6.548;2023-02-28T04:36:20;3.80;99.90
51902;DHT22;37929;53.218;6.548;2023-02-28T04:38:48;3.80;99.90
51902;DHT22;37929;53.218;6.548;2023-02-28T04:41:15;3.80;99.90
51902;DHT22;37929;53.218;6.548;2023-02-28T04:43:41;3.70;99.90
51902;DHT22;37929;53.218;6.548;2023-02-28T04:46:07;3.70;99.90
51902;DHT22;37929;53.218;6.548;2023-02-28T04:48:35;3.70;99.90
51902;DHT22;37929;53.218;6.548;2023-02-28T04:51:07;3.70;99.90
51902;DHT22;37929;53.218;6.548;2023-02-28T04:53:34;3.60;99.90
51902;DHT22;37929;53.218;6.548;2023-02-28T04:56:00;3.60;99.90
51902;DHT22;37929;53.218;6.548;2023-02-28T04:58:26;3.60;99.90
51902;DHT22;37929;53.218;6.548;2023-02-28T05:00:53;3.60;99.90
51902;DHT22;37929;53.218;6.548;2023-02-28T05:03:19;3.60;99.90
51902;DHT22;37929;53.218;6.548;2023-02-28T05:05:46;3.60;99.90
51902;DHT22;37929;53.218;6.548;2023-02-28T05:08:12;3.50;99.90
51902;DHT22;37929;53.218;6.548;2023-02-28T05:10:38;3.40;99.90
51902;DHT22;37929;53.218;6.548;2023-02-28T05:13:04;3.40;99.90
51902;DHT22;37929;53.218;6.548;2023-02-28T05:15:29;3.40;99.90
51902;DHT22;37929;53.218;6.548;2023-02-28T05:17:55;3.30;99.90
51902;DHT22;37929;53.218;6.548;2023-02-28T05:20:21;3.60;99.90
51902;DHT22;37929;53.218;6.548;2023-02-28T05:22:47;4.00;99.90
51902;DHT22;37929;53.218;6.548;2023-02-28T05:25:17;3.20;99.90
51902;DHT22;37929;53.218;6.548;2023-02-28T05:27:44;3.20;99.90
51902;DHT22;37929;53.218;6.548;2023-02-28T05:30:10;3.90;99.90
51902;DHT22;37929;53.218;6.548;2023-02-28T05:32:40;3.10;99.90
51902;DHT22;37929;53.218;6.548;2023-02-28T05:35:10;3.30;99.90
51902;DHT22;37929;53.218;6.548;2023-02-28T05:37:37;3.40;99.90
51902;DHT22;37929;53.218;6.548;2023-02-28T05:40:04;3.70;99.90
51902;DHT22;37929;53.218;6.548;2023-02-28T05:42:37;3.10;99.90
51902;DHT22;37929;53.218;6.548;2023-02-28T05:45:04;3.00;99.90
51902;DHT22;37929;53.218;6.548;2023-02-28T05:47:30;3.00;99.90
51902;DHT22;37929;53.218;6.548;2023-02-28T05:49:56;3.00;99.90
51902;DHT22;37929;53.218;6.548;2023-02-28T05:52:22;2.90;99.90
51902;DHT22;37929;53.218;6.548;2023-02-28T05:54:48;3.00;99.90
51902;DHT22;37929;53.218;6.548;2023-02-28T05:57:14;3.00;99.90
51902;DHT22;37929;53.218;6.548;2023-02-28T05:59:40;2.90;99.90
51902;DHT22;37929;53.218;6.548;2023-02-28T06:02:12;3.50;99.90
51902;DHT22;37929;53.218;6.548;2023-02-28T06:04:38;2.80;99.90
51902;DHT22;37929;53.218;6.548;2023-02-28T06:07:04;2.80;99.90
51902;DHT22;37929;53.218;6.548;2023-02-28T06:09:29;2.80;99.90
51902;DHT22;37929;53.218;6.548;2023-02-28T06:12:01;2.80;99.90
51902;DHT22;37929;53.218;6.548;2023-02-28T06:14:29;2.80;99.90
51902;DHT22;37929;53.218;6.548;2023-02-28T06:16:57;2.80;99.90
51902;DHT22;37929;53.218;6.548;2023-02-28T06:19:22;2.80;99.90
51902;DHT22;37929;53.218;6.548;2023-02-28T06:21:51;2.80;99.90
51902;DHT22;37929;53.218;6.548;2023-02-28T06:24:19;2.80;99.90
51902;DHT22;37929;53.218;6.548;2023-02-28T06:26:45;2.70;99.90
51902;DHT22;37929;53.218;6.548;2023-02-28T06:29:12;3.40;99.90
51902;DHT22;37929;53.218;6.548;2023-02-28T06:31:43;2.80;99.90
51902;DHT22;37929;53.218;6.548;2023-02-28T06:34:10;2.80;99.90
51902;DHT22;37929;53.218;6.548;2023-02-28T06:36:38;2.90;99.90
51902;DHT22;37929;53.218;6.548;2023-02-28T06:39:04;2.80;99.90
51902;DHT22;37929;53.218;6.548;2023-02-28T06:41:30;2.80;99.90
51902;DHT22;37929;53.218;6.548;2023-02-28T06:43:56;3.20;99.90
51902;DHT22;37929;53.218;6.548;2023-02-28T06:46:22;2.70;99.90
51902;DHT22;37929;53.218;6.548;2023-02-28T06:48:49;2.70;99.90
51902;DHT22;37929;53.218;6.548;2023-02-28T06:51:18;2.70;99.90
51902;DHT22;37929;53.218;6.548;2023-02-28T06:53:45;2.80;99.90
51902;DHT22;37929;53.218;6.548;2023-02-28T06:56:13;2.70;99.90
51902;DHT22;37929;53.218;6.548;2023-02-28T06:58:39;2.60;99.90
51902;DHT22;37929;53.218;6.548;2023-02-28T07:01:06;2.60;99.90
51902;DHT22;37929;53.218;6.548;2023-02-28T07:03:32;2.50;99.90
51902;DHT22;37929;53.218;6.548;2023-02-28T07:05:58;2.50;99.90
51902;DHT22;37929;53.218;6.548;2023-02-28T07:08:25;2.50;99.90
51902;DHT22;37929;53.218;6.548;2023-02-28T07:10:53;2.50;99.90
51902;DHT22;37929;53.218;6.548;2023-02-28T07:13:20;2.40;99.90
51902;DHT22;37929;53.218;6.548;2023-02-28T07:16:16;2.30;99.90
51902;DHT22;37929;53.218;6.548;2023-02-28T07:18:42;2.40;99.90
51902;DHT22;37929;53.218;6.548;2023-02-28T07:21:09;2.30;99.90
51902;DHT22;37929;53.218;6.548;2023-02-28T07:23:35;2.30;99.90
51902;DHT22;37929;53.218;6.548;2023-02-28T07:26:03;2.30;99.90
51902;DHT22;37929;53.218;6.548;2023-02-28T07:28:29;2.30;99.90
51902;DHT22;37929;53.218;6.548;2023-02-28T07:30:55;2.60;99.90
51902;DHT22;37929;53.218;6.548;2023-02-28T07:33:21;2.40;99.90
51902;DHT22;37929;53.218;6.548;2023-02-28T07:35:47;2.40;99.90
51902;DHT22;37929;53.218;6.548;2023-02-28T07:38:12;2.40;99.90
51902;DHT22;37929;53.218;6.548;2023-02-28T07:40:39;2.40;99.90
51902;DHT22;37929;53.218;6.548;2023-02-28T07:43:05;2.40;99.90
51902;DHT22;37929;53.218;6.548;2023-02-28T07:45:31;2.40;99.90
51902;DHT22;37929;53.218;6.548;2023-02-28T07:48:00;2.40;99.90
51902;DHT22;37929;53.218;6.548;2023-02-28T07:50:26;2.50;99.90
51902;DHT22;37929;53.218;6.548;2023-02-28T07:52:57;2.50;99.90
51902;DHT22;37929;53.218;6.548;2023-02-28T07:55:23;2.70;99.90
51902;DHT22;37929;53.218;6.548;2023-02-28T07:57:49;2.60;99.90
51902;DHT22;37929;53.218;6.548;2023-02-28T08:00:15;2.70;99.90
51902;DHT22;37929;53.218;6.548;2023-02-28T08:02:41;2.80;99.90
51902;DHT22;37929;53.218;6.548;2023-02-28T08:05:08;2.80;99.90
51902;DHT22;37929;53.218;6.548;2023-02-28T08:07:34;2.80;99.90
51902;DHT22;37929;53.218;6.548;2023-02-28T08:10:00;2.90;99.90
51902;DHT22;37929;53.218;6.548;2023-02-28T08:12:25;3.30;99.90
51902;DHT22;37929;53.218;6.548;2023-02-28T08:14:51;2.90;99.90
51902;DHT22;37929;53.218;6.548;2023-02-28T08:17:17;2.90;99.90
51902;DHT22;37929;53.218;6.548;2023-02-28T08:19:45;3.60;99.90
51902;DHT22;37929;53.218;6.548;2023-02-28T08:22:12;3.00;99.90
51902;DHT22;37929;53.218;6.548;2023-02-28T08:24:38;3.30;99.90
51902;DHT22;37929;53.218;6.548;2023-02-28T08:27:04;3.10;99.90
51902;DHT22;37929;53.218;6.548;2023-02-28T08:29:29;3.00;99.90
51902;DHT22;37929;53.218;6.548;2023-02-28T08:31:55;3.30;99.90
51902;DHT22;37929;53.218;6.548;2023-02-28T08:34:22;3.10;99.90
51902;DHT22;37929;53.218;6.548;2023-02-28T08:36:48;3.10;99.90
51902;DHT22;37929;53.218;6.548;2023-02-28T08:39:14;3.20;99.90
51902;DHT22;37929;53.218;6.548;2023-02-28T08:41:41;3.30;99.90
51902;DHT22;37929;53.218;6.548;2023-02-28T08:44:07;3.30;99.90
51902;DHT22;37929;53.218;6.548;2023-02-28T08:46:33;3.30;99.90
51902;DHT22;37929;53.218;6.548;2023-02-28T08:48:59;3.30;99.90
51902;DHT22;37929;53.218;6.548;2023-02-28T08:51:28;3.30;99.90
51902;DHT22;37929;53.218;6.548;2023-02-28T08:53:57;3.30;99.90
51902;DHT22;37929;53.218;6.548;2023-02-28T08:56:23;3.30;99.90
51902;DHT22;37929;53.218;6.548;2023-02-28T08:58:50;3.40;99.90
51902;DHT22;37929;53.218;6.548;2023-02-28T09:01:21;4.20;99.90
51902;DHT22;37929;53.218;6.548;2023-02-28T09:03:49;3.40;99.90
51902;DHT22;37929;53.218;6.548;2023-02-28T09:06:17;3.40;99.90
51902;DHT22;37929;53.218;6.548;2023-02-28T09:08:43;3.50;99.90
51902;DHT22;37929;53.218;6.548;2023-02-28T09:11:10;4.30;99.90
51902;DHT22;37929;53.218;6.548;2023-02-28T09:13:36;3.50;99.90
51902;DHT22;37929;53.218;6.548;2023-02-28T09:16:03;3.60;99.90
51902;DHT22;37929;53.218;6.548;2023-02-28T09:18:29;3.60;99.90
51902;DHT22;37929;53.218;6.548;2023-02-28T09:20:56;3.90;99.90
51902;DHT22;37929;53.218;6.548;2023-02-28T09:23:23;3.60;99.90
51902;DHT22;37929;53.218;6.548;2023-02-28T09:25:51;4.50;99.90
51902;DHT22;37929;53.218;6.548;2023-02-28T09:28:18;4.00;99.90
51902;DHT22;37929;53.218;6.548;2023-02-28T09:30:45;4.10;99.90
51902;DHT22;37929;53.218;6.548;2023-02-28T09:33:12;4.30;99.90
51902;DHT22;37929;53.218;6.548;2023-02-28T09:35:38;4.50;99.90
51902;DHT22;37929;53.218;6.548;2023-02-28T09:38:04;5.00;99.90
51902;DHT22;37929;53.218;6.548;2023-02-28T09:40:31;4.80;99.90
51902;DHT22;37929;53.218;6.548;2023-02-28T09:43:00;5.00;99.90
51902;DHT22;37929;53.218;6.548;2023-02-28T09:45:36;5.20;99.90
51902;DHT22;37929;53.218;6.548;2023-02-28T09:48:10;5.40;99.90
51902;DHT22;37929;53.218;6.548;2023-02-28T09:50:43;5.70;99.90
51902;DHT22;37929;53.218;6.548;2023-02-28T09:53:27;5.70;99.90
51902;DHT22;37929;53.218;6.548;2023-02-28T09:55:58;5.90;99.90
51902;DHT22;37929;53.218;6.548;2023-02-28T09:58:33;6.20;99.90
51902;DHT22;37929;53.218;6.548;2023-02-28T10:01:37;6.70;99.90
51902;DHT22;37929;53.218;6.548;2023-02-28T10:07:06;6.60;99.90
51902;DHT22;37929;53.218;6.548;2023-02-28T10:09:45;6.60;99.90
51902;DHT22;37929;53.218;6.548;2023-02-28T10:12:12;6.50;99.90
51902;DHT22;37929;53.218;6.548;2023-02-28T10:14:44;6.40;99.90
51902;DHT22;37929;53.218;6.548;2023-02-28T10:17:21;6.30;99.90
51902;DHT22;37929;53.218;6.548;2023-02-28T10:20:15;6.20;99.90
51902;DHT22;37929;53.218;6.548;2023-02-28T10:25:44;6.10;99.90
51902;DHT22;37929;53.218;6.548;2023-02-28T10:28:17;6.10;99.90
51902;DHT22;37929;53.218;6.548;2023-02-28T10:30:51;6.10;99.90
51902;DHT22;37929;53.218;6.548;2023-02-28T10:33:33;6.10;99.90
51902;DHT22;37929;53.218;6.548;2023-02-28T10:36:03;6.10;99.90
51902;DHT22;37929;53.218;6.548;2023-02-28T10:38:34;6.20;99.90
51902;DHT22;37929;53.218;6.548;2023-02-28T10:43:39;6.20;99.90
51902;DHT22;37929;53.218;6.548;2023-02-28T10:48:40;6.30;99.90
51902;DHT22;37929;53.218;6.548;2023-02-28T10:51:10;6.70;99.90
51902;DHT22;37929;53.218;6.548;2023-02-28T10:53:47;6.50;99.90
51902;DHT22;37929;53.218;6.548;2023-02-28T10:56:24;7.10;99.90
51902;DHT22;37929;53.218;6.548;2023-02-28T11:01:40;6.50;99.90
51902;DHT22;37929;53.218;6.548;2023-02-28T11:07:03;6.70;99.90
51902;DHT22;37929;53.218;6.548;2023-02-28T11:09:35;6.80;99.90
51902;DHT22;37929;53.218;6.548;2023-02-28T11:12:08;6.90;99.90
51902;DHT22;37929;53.218;6.548;2023-02-28T11:14:49;7.00;99.90
51902;DHT22;37929;53.218;6.548;2023-02-28T11:17:42;7.10;99.90
51902;DHT22;37929;53.218;6.548;2023-02-28T11:20:21;7.10;99.90
51902;DHT22;37929;53.218;6.548;2023-02-28T11:22:49;7.10;99.90
51902;DHT22;37929;53.218;6.548;2023-02-28T11:25:26;7.10;99.90
51902;DHT22;37929;53.218;6.548;2023-02-28T11:27:56;7.10;99.90
51902;DHT22;37929;53.218;6.548;2023-02-28T11:30:41;7.20;99.90
51902;DHT22;37929;53.218;6.548;2023-02-28T11:35:49;7.30;99.90
51902;DHT22;37929;53.218;6.548;2023-02-28T11:38:15;7.40;99.90
51902;DHT22;37929;53.218;6.548;2023-02-28T11:41:21;7.30;99.90
51902;DHT22;37929;53.218;6.548;2023-02-28T11:46:40;7.40;99.90
51902;DHT22;37929;53.218;6.548;2023-02-28T12:03:38;7.40;99.90
51902;DHT22;37929;53.218;6.548;2023-02-28T12:11:52;7.50;99.90
51902;DHT22;37929;53.218;6.548;2023-02-28T12:20:32;7.80;99.90
51902;DHT22;37929;53.218;6.548;2023-02-28T12:29:04;7.80;99.90
51902;DHT22;37929;53.218;6.548;2023-02-28T12:31:48;7.90;99.90
51902;DHT22;37929;53.218;6.548;2023-02-28T12:34:19;8.00;99.90
51902;DHT22;37929;53.218;6.548;2023-02-28T12:36:49;8.20;99.90
51902;DHT22;37929;53.218;6.548;2023-02-28T12:39:30;8.30;99.90
51902;DHT22;37929;53.218;6.548;2023-02-28T12:42:24;8.50;99.90
51902;DHT22;37929;53.218;6.548;2023-02-28T12:47:24;8.60;99.90
51902;DHT22;37929;53.218;6.548;2023-02-28T12:52:25;8.70;99.90
51902;DHT22;37929;53.218;6.548;2023-02-28T12:55:08;8.60;99.90
51902;DHT22;37929;53.218;6.548;2023-02-28T12:57:45;8.30;99.90
51902;DHT22;37929;53.218;6.548;2023-02-28T13:10:48;8.60;99.90
51902;DHT22;37929;53.218;6.548;2023-02-28T13:13:23;8.40;99.90
51902;DHT22;37929;53.218;6.548;2023-02-28T13:16:09;8.40;99.90
51902;DHT22;37929;53.218;6.548;2023-02-28T13:18:45;8.60;99.90
51902;DHT22;37929;53.218;6.548;2023-02-28T13:21:29;8.70;99.90
51902;DHT22;37929;53.218;6.548;2023-02-28T13:23:57;8.80;99.90
51902;DHT22;37929;53.218;6.548;2023-02-28T13:50:39;10.20;99.90
51902;DHT22;37929;53.218;6.548;2023-02-28T14:06:52;9.30;99.90
51902;DHT22;37929;53.218;6.548;2023-02-28T14:09:26;9.20;99.90
51902;DHT22;37929;53.218;6.548;2023-02-28T14:11:52;9.20;99.90
51902;DHT22;37929;53.218;6.548;2023-02-28T14:17:05;9.10;99.90
51902;DHT22;37929;53.218;6.548;2023-02-28T14:19:36;9.00;99.90
51902;DHT22;37929;53.218;6.548;2023-02-28T14:23:01;9.00;99.90
51902;DHT22;37929;53.218;6.548;2023-02-28T14:25:10;9.00;99.90
51902;DHT22;37929;53.218;6.548;2023-02-28T14:38:41;9.50;99.90
51902;DHT22;37929;53.218;6.548;2023-02-28T14:41:16;9.80;99.90
51902;DHT22;37929;53.218;6.548;2023-02-28T14:43:53;10.00;99.90
51902;DHT22;37929;53.218;6.548;2023-02-28T14:46:20;10.00;99.90
51902;DHT22;37929;53.218;6.548;2023-02-28T14:48:48;10.00;99.90
51902;DHT22;37929;53.218;6.548;2023-02-28T14:51:20;10.10;99.90
51902;DHT22;37929;53.218;6.548;2023-02-28T14:53:56;10.00;99.90
51902;DHT22;37929;53.218;6.548;2023-02-28T14:56:26;9.90;99.90
51902;DHT22;37929;53.218;6.548;2023-02-28T14:58:54;9.70;99.90
51902;DHT22;37929;53.218;6.548;2023-02-28T15:01:22;9.30;99.90
51902;DHT22;37929;53.218;6.548;2023-02-28T15:03:57;9.30;99.90
51902;DHT22;37929;53.218;6.548;2023-02-28T15:06:24;9.20;99.90
51902;DHT22;37929;53.218;6.548;2023-02-28T15:09:11;8.90;99.90
51902;DHT22;37929;53.218;6.548;2023-02-28T15:11:39;8.70;99.90
51902;DHT22;37929;53.218;6.548;2023-02-28T15:14:05;8.70;99.90
51902;DHT22;37929;53.218;6.548;2023-02-28T15:16:32;8.70;99.90
51902;DHT22;37929;53.218;6.548;2023-02-28T15:19:03;8.70;99.90
51902;DHT22;37929;53.218;6.548;2023-02-28T15:21:33;8.70;99.90
51902;DHT22;37929;53.218;6.548;2023-02-28T15:27:02;8.80;99.90
51902;DHT22;37929;53.218;6.548;2023-02-28T15:29:32;8.80;99.90
51902;DHT22;37929;53.218;6.548;2023-02-28T15:32:05;8.70;99.90
51902;DHT22;37929;53.218;6.548;2023-02-28T15:34:39;8.70;99.90
51902;DHT22;37929;53.218;6.548;2023-02-28T15:39:53;8.50;99.90
51902;DHT22;37929;53.218;6.548;2023-02-28T15:42:28;8.40;99.90
51902;DHT22;37929;53.218;6.548;2023-02-28T15:44:54;8.30;99.90
51902;DHT22;37929;53.218;6.548;2023-02-28T15:47:23;8.20;99.90
51902;DHT22;37929;53.218;6.548;2023-02-28T15:50:03;8.10;99.90
51902;DHT22;37929;53.218;6.548;2023-02-28T15:52:41;8.00;99.90
51902;DHT22;37929;53.218;6.548;2023-02-28T15:55:22;8.00;99.90
51902;DHT22;37929;53.218;6.548;2023-02-28T15:57:51;8.00;99.90
51902;DHT22;37929;53.218;6.548;2023-02-28T16:00:21;8.00;99.90
51902;DHT22;37929;53.218;6.548;2023-02-28T16:02:47;8.00;99.90
51902;DHT22;37929;53.218;6.548;2023-02-28T16:05:21;7.90;99.90
51902;DHT22;37929;53.218;6.548;2023-02-28T16:07:54;7.80;99.90
51902;DHT22;37929;53.218;6.548;2023-02-28T16:10:24;7.60;99.90
51902;DHT22;37929;53.218;6.548;2023-02-28T16:12:55;7.60;99.90
51902;DHT22;37929;53.218;6.548;2023-02-28T16:15:29;7.60;99.90
51902;DHT22;37929;53.218;6.548;2023-02-28T16:17:57;7.50;99.90
51902;DHT22;37929;53.218;6.548;2023-02-28T16:20:29;7.50;99.90
51902;DHT22;37929;53.218;6.548;2023-02-28T16:22:55;7.40;99.90
51902;DHT22;37929;53.218;6.548;2023-02-28T16:25:33;7.50;99.90
51902;DHT22;37929;53.218;6.548;2023-02-28T16:27:59;7.50;99.90
51902;DHT22;37929;53.218;6.548;2023-02-28T16:30:27;7.40;99.90
51902;DHT22;37929;53.218;6.548;2023-02-28T16:32:56;7.40;99.90
51902;DHT22;37929;53.218;6.548;2023-02-28T16:35:23;7.40;99.90
51902;DHT22;37929;53.218;6.548;2023-02-28T16:37:51;7.40;99.90
51902;DHT22;37929;53.218;6.548;2023-02-28T16:40:20;7.40;99.90
51902;DHT22;37929;53.218;6.548;2023-02-28T16:42:49;7.40;99.90
51902;DHT22;37929;53.218;6.548;2023-02-28T16:45:29;7.30;99.90
51902;DHT22;37929;53.218;6.548;2023-02-28T16:47:56;7.20;99.90
51902;DHT22;37929;53.218;6.548;2023-02-28T16:50:24;7.10;99.90
51902;DHT22;37929;53.218;6.548;2023-02-28T16:52:50;7.10;99.90
51902;DHT22;37929;53.218;6.548;2023-02-28T16:55:21;7.10;99.90
51902;DHT22;37929;53.218;6.548;2023-02-28T16:57:55;7.00;99.90
51902;DHT22;37929;53.218;6.548;2023-02-28T17:00:22;7.00;99.90
51902;DHT22;37929;53.218;6.548;2023-02-28T17:02:48;7.00;99.90
51902;DHT22;37929;53.218;6.548;2023-02-28T17:05:14;7.00;99.90
51902;DHT22;37929;53.218;6.548;2023-02-28T17:07:41;6.90;99.90
51902;DHT22;37929;53.218;6.548;2023-02-28T17:10:24;6.90;99.90
51902;DHT22;37929;53.218;6.548;2023-02-28T17:12:51;6.80;99.90
51902;DHT22;37929;53.218;6.548;2023-02-28T17:15:19;6.70;99.90
51902;DHT22;37929;53.218;6.548;2023-02-28T17:17:46;6.70;99.90
51902;DHT22;37929;53.218;6.548;2023-02-28T17:20:21;6.60;99.90
51902;DHT22;37929;53.218;6.548;2023-02-28T17:22:53;6.50;99.90
51902;DHT22;37929;53.218;6.548;2023-02-28T17:25:19;6.50;99.90
51902;DHT22;37929;53.218;6.548;2023-02-28T17:27:46;6.50;99.90
51902;DHT22;37929;53.218;6.548;2023-02-28T17:32:41;6.40;99.90
51902;DHT22;37929;53.218;6.548;2023-02-28T17:35:08;6.80;99.90
51902;DHT22;37929;53.218;6.548;2023-02-28T17:37:34;6.30;99.90
51902;DHT22;37929;53.218;6.548;2023-02-28T17:40:00;6.20;99.90
51902;DHT22;37929;53.218;6.548;2023-02-28T17:42:26;6.10;99.90
51902;DHT22;37929;53.218;6.548;2023-02-28T17:44:52;6.10;99.90
51902;DHT22;37929;53.218;6.548;2023-02-28T17:47:17;6.10;99.90
51902;DHT22;37929;53.218;6.548;2023-02-28T17:49:43;6.10;99.90
51902;DHT22;37929;53.218;6.548;2023-02-28T17:52:09;6.10;99.90
51902;DHT22;37929;53.218;6.548;2023-02-28T17:54:35;6.10;99.90
51902;DHT22;37929;53.218;6.548;2023-02-28T17:57:01;6.00;99.90
51902;DHT22;37929;53.218;6.548;2023-02-28T17:59:26;6.00;99.90
51902;DHT22;37929;53.218;6.548;2023-02-28T18:02:02;6.10;99.90
51902;DHT22;37929;53.218;6.548;2023-02-28T18:04:29;6.00;99.90
51902;DHT22;37929;53.218;6.548;2023-02-28T18:06:55;5.90;99.90
51902;DHT22;37929;53.218;6.548;2023-02-28T18:09:26;5.90;99.90
51902;DHT22;37929;53.218;6.548;2023-02-28T18:11:54;6.00;99.90
51902;DHT22;37929;53.218;6.548;2023-02-28T18:14:24;5.90;99.90
51902;DHT22;37929;53.218;6.548;2023-02-28T18:16:52;6.00;99.90
51902;DHT22;37929;53.218;6.548;2023-02-28T18:19:18;5.90;99.90
51902;DHT22;37929;53.218;6.548;2023-02-28T18:21:47;5.90;99.90
51902;DHT22;37929;53.218;6.548;2023-02-28T18:24:14;5.90;99.90
51902;DHT22;37929;53.218;6.548;2023-02-28T18:26:41;5.80;99.90
51902;DHT22;37929;53.218;6.548;2023-02-28T18:29:08;5.80;99.90
51902;DHT22;37929;53.218;6.548;2023-02-28T18:31:34;5.80;99.90
51902;DHT22;37929;53.218;6.548;2023-02-28T18:34:00;5.80;99.90
51902;DHT22;37929;53.218;6.548;2023-02-28T18:36:26;5.70;99.90
51902;DHT22;37929;53.218;6.548;2023-02-28T18:38:52;5.70;99.90
51902;DHT22;37929;53.218;6.548;2023-02-28T18:41:20;5.70;99.90
51902;DHT22;37929;53.218;6.548;2023-02-28T18:43:46;5.60;99.90
51902;DHT22;37929;53.218;6.548;2023-02-28T18:46:17;5.70;99.90
51902;DHT22;37929;53.218;6.548;2023-02-28T18:48:43;5.60;99.90
51902;DHT22;37929;53.218;6.548;2023-02-28T18:51:12;5.60;99.90
51902;DHT22;37929;53.218;6.548;2023-02-28T18:53:39;6.30;99.90
51902;DHT22;37929;53.218;6.548;2023-02-28T18:56:06;5.60;99.90